Middleton, Utah
Current Conditions -  °F | °C
As of 5:55 PM on Saturday 20 Dec 2014 (Local Time) from KSGU Reporting Station
Overcast Overcast  
Wind Chill: 46°   Ceiling: 10000
Heat Index: 46°   Visibility: 10mi
Dew Point: 34°   Wind: 0mph
Humidity: 62%   Direction: NA
Pressure: 30.14"   Gusts: NA
Location:  37.1317°N, 113.795°W
Report Text: KSGU 210055Z AUTO 00000KT 10SM OVC100 08/01 A3014 RMK AO1
Loading
Personal Weather Stations






























Interactive Weather Map New forecast layout! Learn more

10-Day Weather Forecast

Advertisements
Track Severe Weather on mobile